Time;durP1;ratioP1;P1;durP2;ratioP2;P2;SDS_P1;SDS_P2;PMS_P1;PMS_P2;Temp;Humidity;BMP_temperature;BMP_pressure;BME280_temperature;BME280_humidity;BME280_pressure;Samples;Min_cycle;Max_cycle;Signal;HPM_P1;HPM_P2
2023/07/24 00:00:52;;;;;;;15.70;7.85;;;17.80;1.00;;;;;;7393388;19;20038;-67
2023/07/24 00:03:22;;;;;;;14.85;8.43;;;17.40;14.40;;;;;;7393974;19;20018;-67
2023/07/24 00:05:54;;;;;;;13.85;8.13;;;17.40;31.10;;;;;;7394169;19;20038;-67
2023/07/24 00:08:24;;;;;;;18.65;8.25;;;17.50;41.50;;;;;;7394202;19;20018;-67
2023/07/24 00:10:54;;;;;;;12.60;8.10;;;17.40;44.10;;;;;;7391248;19;20037;-67
2023/07/24 00:13:24;;;;;;;14.38;7.03;;;17.50;54.20;;;;;;7392114;19;20023;-67
2023/07/24 00:15:54;;;;;;;10.98;7.38;;;17.30;48.10;;;;;;7393776;19;20019;-67
2023/07/24 00:18:24;;;;;;;13.27;7.90;;;17.50;52.60;;;;;;7391910;19;20093;-68
2023/07/24 00:20:56;;;;;;;13.30;8.10;;;17.50;49.30;;;;;;7392260;19;20018;-67
2023/07/24 00:23:26;;;;;;;14.32;7.72;;;17.50;53.50;;;;;;7393358;19;20022;-67
2023/07/24 00:25:56;;;;;;;12.93;8.45;;;17.50;53.80;;;;;;7393632;19;20094;-66
2023/07/24 00:28:26;;;;;;;14.88;8.50;;;17.40;49.40;;;;;;7393659;19;20027;-67
2023/07/24 00:30:56;;;;;;;14.00;7.78;;;17.50;52.40;;;;;;7390625;19;20041;-67
2023/07/24 00:33:26;;;;;;;11.10;7.28;;;17.40;43.70;;;;;;7393017;19;20049;-66
2023/07/24 00:36:00;;;;;;;11.20;7.43;;;17.40;45.90;;;;;;7393002;19;20031;-67
2023/07/24 00:38:30;;;;;;;14.82;8.05;;;17.30;37.50;;;;;;7391258;19;20085;-67
2023/07/24 00:41:00;;;;;;;12.70;7.75;;;17.20;38.70;;;;;;7391550;19;20018;-68
2023/07/24 00:43:30;;;;;;;14.52;8.32;;;17.40;36.00;;;;;;7392659;19;20018;-68
2023/07/24 00:46:00;;;;;;;11.77;7.35;;;17.20;25.60;;;;;;7392449;19;20488;-68
2023/07/24 00:48:30;;;;;;;10.70;7.32;;;17.30;21.10;;;;;;7392546;19;20045;-68
2023/07/24 00:51:04;;;;;;;10.68;7.28;;;17.20;16.40;;;;;;7391692;19;20035;-67
2023/07/24 00:53:34;;;;;;;10.77;6.97;;;17.50;13.60;;;;;;7392198;19;20070;-68
2023/07/24 00:56:05;;;;;;;12.23;7.45;;;17.50;7.90;;;;;;7392058;19;20078;-68
2023/07/24 00:58:37;;;;;;;10.63;7.00;;;17.60;16.70;;;;;;7390659;19;20031;-68
2023/07/24 01:01:08;;;;;;;12.45;7.78;;;17.40;18.90;;;;;;7390623;19;20014;-68
2023/07/24 01:03:38;;;;;;;10.77;7.30;;;17.10;12.10;;;;;;7392197;19;20302;-68
2023/07/24 01:06:11;;;;;;;14.55;7.75;;;17.10;16.30;;;;;;7392058;19;20018;-68
2023/07/24 01:08:40;;;;;;;10.63;7.00;;;17.20;21.10;;;;;;7391755;19;20022;-68
2023/07/24 01:11:17;;;;;;;11.13;8.02;;;17.00;16.10;;;;;;7390274;19;20014;-68
2023/07/24 01:13:55;;;;;;;15.15;7.90;;;17.00;14.60;;;;;;7391700;19;20070;-68
2023/07/24 01:16:28;;;;;;;12.57;7.97;;;17.00;14.40;;;;;;7391594;19;20019;-68
2023/07/24 01:19:00;;;;;;;13.30;7.70;;;17.20;16.60;;;;;;7390093;19;20478;-68
2023/07/24 01:21:41;;;;;;;13.30;7.70;;;17.20;18.50;;;;;;7390249;19;20295;-68
2023/07/24 01:24:20;;;;;;;10.77;7.28;;;17.00;16.20;;;;;;7397818;19;20010;-68
2023/07/24 01:26:53;;;;;;;12.52;7.38;;;16.90;14.20;;;;;;7399026;19;20017;-69
2023/07/24 01:29:23;;;;;;;11.07;7.55;;;17.00;8.90;;;;;;7399589;19;20094;-69
2023/07/24 01:31:53;;;;;;;11.63;7.57;;;17.10;6.90;;;;;;7399081;19;20623;-68
2023/07/24 01:34:23;;;;;;;11.93;7.22;;;17.30;3.50;;;;;;7398783;19;20019;-68
2023/07/24 01:36:53;;;;;;;10.55;7.40;;;17.20;5.70;;;;;;7397607;19;20021;-68
2023/07/24 01:39:23;;;;;;;12.20;7.97;;;17.20;2.30;;;;;;7398548;19;20022;-68
2023/07/24 01:41:56;;;;;;;10.82;7.28;;;17.20;1.00;;;;;;7398391;19;20518;-69
2023/07/24 01:44:26;;;;;;;12.98;8.02;;;17.30;5.90;;;;;;7398230;19;20533;-66
2023/07/24 01:46:56;;;;;;;10.48;6.95;;;17.20;5.30;;;;;;7398380;19;20038;-68
2023/07/24 01:49:26;;;;;;;14.27;8.10;;;17.30;1.00;;;;;;7398561;19;20038;-68
2023/07/24 01:51:57;;;;;;;11.13;7.68;;;17.20;1.00;;;;;;7398383;19;20018;-68
2023/07/24 01:54:27;;;;;;;11.23;7.50;;;17.40;1.00;;;;;;7397831;19;20375;-68
2023/07/24 01:56:59;;;;;;;15.13;8.02;;;17.40;1.00;;;;;;7398556;19;20070;-68
2023/07/24 01:59:29;;;;;;;11.27;7.72;;;17.40;1.00;;;;;;7395184;19;20030;-68
2023/07/24 02:01:59;;;;;;;14.50;8.13;;;17.50;1.00;;;;;;7398791;19;20366;-68
2023/07/24 02:04:29;;;;;;;11.23;7.30;;;17.60;1.00;;;;;;7397634;19;20018;-68
2023/07/24 02:06:59;;;;;;;12.73;8.75;;;17.60;1.00;;;;;;7397862;19;20022;-68
2023/07/24 02:09:29;;;;;;;11.30;7.25;;;17.60;1.00;;;;;;7395787;19;20474;-68
2023/07/24 02:12:02;;;;;;;12.65;7.68;;;17.60;1.00;;;;;;7397656;19;20090;-68
2023/07/24 02:14:32;;;;;;;9.40;6.68;;;17.50;1.00;;;;;;7397551;19;20142;-68
2023/07/24 02:17:02;;;;;;;12.73;7.25;;;17.60;1.00;;;;;;7396152;19;20782;-69
2023/07/24 02:19:31;;;;;;;9.52;6.70;;;17.60;1.00;;;;;;7395467;19;20022;-68
2023/07/24 02:22:02;;;;;;;11.20;7.43;;;17.70;1.00;;;;;;7397791;19;20027;-68
2023/07/24 02:24:31;;;;;;;12.55;6.80;;;17.60;1.00;;;;;;7397293;19;20599;-69
2023/07/24 02:27:04;;;;;;;11.00;7.05;;;17.60;1.00;;;;;;7396334;19;20022;-68
2023/07/24 02:29:35;;;;;;;12.38;7.40;;;17.80;1.00;;;;;;7395391;19;20078;-69
2023/07/24 02:32:06;;;;;;;11.90;8.05;;;17.70;1.00;;;;;;7395907;19;20022;-69
2023/07/24 02:34:36;;;;;;;10.60;6.75;;;17.80;1.00;;;;;;7396305;19;20515;-68
2023/07/24 02:37:06;;;;;;;12.45;7.30;;;17.90;1.00;;;;;;7397170;19;20074;-68
2023/07/24 02:39:36;;;;;;;10.60;7.00;;;17.90;1.00;;;;;;7394963;19;20010;-69
2023/07/24 02:42:09;;;;;;;14.38;7.40;;;18.00;1.00;;;;;;7397021;19;20015;-68
2023/07/24 02:44:39;;;;;;;10.93;7.88;;;17.90;1.00;;;;;;7396597;19;20457;-67
2023/07/24 02:47:09;;;;;;;10.30;6.47;;;17.90;1.00;;;;;;7396349;19;20022;-68
2023/07/24 02:49:38;;;;;;;10.13;6.88;;;17.90;1.00;;;;;;7396458;19;20018;-68
2023/07/24 02:52:08;;;;;;;11.55;6.95;;;18.10;1.00;;;;;;7396549;19;20362;-68
2023/07/24 02:54:38;;;;;;;12.27;7.07;;;18.10;1.00;;;;;;7396497;19;20022;-68
2023/07/24 02:57:11;;;;;;;11.35;7.30;;;18.00;1.00;;;;;;7396456;19;20023;-69
2023/07/24 02:59:41;;;;;;;13.05;7.25;;;18.00;1.00;;;;;;7394452;19;20015;-68
2023/07/24 03:02:11;;;;;;;13.18;7.03;;;17.90;1.00;;;;;;7396535;19;20022;-68
2023/07/24 03:04:41;;;;;;;10.38;6.80;;;17.90;1.00;;;;;;7395935;19;20011;-67
2023/07/24 03:07:11;;;;;;;12.77;7.63;;;17.90;1.00;;;;;;7395882;19;20078;-67
2023/07/24 03:09:41;;;;;;;10.43;7.18;;;17.90;1.00;;;;;;7395900;19;20024;-67
2023/07/24 03:12:13;;;;;;;12.27;7.40;;;17.90;1.00;;;;;;7395511;19;20018;-68
2023/07/24 03:14:43;;;;;;;12.55;7.20;;;17.90;1.00;;;;;;7395935;19;20383;-68
2023/07/24 03:17:13;;;;;;;9.77;7.00;;;17.80;1.00;;;;;;7396220;19;20028;-68
2023/07/24 03:19:43;;;;;;;14.10;7.97;;;17.70;1.00;;;;;;7394061;19;20018;-68
2023/07/24 03:22:13;;;;;;;11.27;7.53;;;17.70;1.00;;;;;;7395881;19;20383;-68
2023/07/24 03:24:43;;;;;;;11.88;7.30;;;17.50;1.00;;;;;;7394920;19;20023;-67
2023/07/24 03:27:16;;;;;;;12.38;7.65;;;17.40;1.00;;;;;;7395922;19;20379;-67
2023/07/24 03:29:46;;;;;;;11.75;7.45;;;17.50;1.00;;;;;;7394944;19;20258;-67
2023/07/24 03:32:16;;;;;;;10.55;7.30;;;17.40;1.00;;;;;;7395441;19;20088;-67
2023/07/24 03:34:45;;;;;;;12.25;6.95;;;17.50;1.00;;;;;;7395046;19;20031;-67
2023/07/24 03:37:15;;;;;;;12.00;7.38;;;17.50;1.00;;;;;;7394780;19;20474;-67
2023/07/24 03:39:45;;;;;;;9.93;6.63;;;17.50;1.00;;;;;;7393905;19;20027;-67
2023/07/24 03:42:27;;;;;;;11.02;6.95;;;17.50;1.00;;;;;;7393273;19;20018;-67
2023/07/24 03:44:58;;;;;;;10.45;6.93;;;17.60;1.00;;;;;;7393879;19;20475;-68
2023/07/24 03:47:28;;;;;;;10.82;6.97;;;17.70;1.00;;;;;;7394352;19;20003;-67
2023/07/24 03:49:58;;;;;;;10.30;7.18;;;17.70;1.00;;;;;;7393964;19;20006;-66
2023/07/24 03:52:28;;;;;;;21.77;7.65;;;17.60;1.00;;;;;;7394818;19;20029;-66
2023/07/24 03:54:58;;;;;;;11.00;7.45;;;17.60;1.00;;;;;;7394467;19;20031;-67
2023/07/24 03:57:30;;;;;;;11.18;7.03;;;17.60;1.00;;;;;;7394533;19;20100;-67
2023/07/24 04:00:00;;;;;;;11.10;6.90;;;17.60;1.00;;;;;;7393202;19;20018;-67
2023/07/24 04:02:30;;;;;;;12.05;7.20;;;17.70;1.00;;;;;;7394547;19;20018;-66
2023/07/24 04:05:00;;;;;;;13.57;7.55;;;17.70;1.00;;;;;;7393780;19;20462;-67
2023/07/24 04:07:30;;;;;;;11.30;7.30;;;17.90;1.00;;;;;;7393993;19;20019;-66
2023/07/24 04:10:00;;;;;;;10.70;6.95;;;18.00;1.00;;;;;;7391568;19;20529;-67
2023/07/24 04:12:33;;;;;;;13.15;7.55;;;18.10;1.00;;;;;;7393915;19;20010;-69
2023/07/24 04:15:03;;;;;;;11.70;7.13;;;18.20;1.00;;;;;;7393581;19;20018;-68
2023/07/24 04:17:35;;;;;;;11.35;7.40;;;18.30;1.00;;;;;;7393869;19;20021;-67
2023/07/24 04:20:06;;;;;;;13.02;7.93;;;18.70;1.00;;;;;;7392149;19;20015;-67
2023/07/24 04:22:36;;;;;;;10.85;6.50;;;19.30;1.00;;;;;;7393694;19;20027;-67
2023/07/24 04:25:07;;;;;;;11.02;7.72;;;19.20;1.00;;;;;;7392775;19;20018;-68
2023/07/24 04:27:40;;;;;;;10.38;7.85;;;18.70;1.00;;;;;;7393369;19;20081;-68
2023/07/24 04:30:11;;;;;;;11.93;7.57;;;18.50;1.00;;;;;;7392948;19;20011;-68
2023/07/24 04:32:40;;;;;;;13.15;7.93;;;18.50;1.00;;;;;;7393442;19;20495;-68
2023/07/24 04:35:11;;;;;;;12.15;7.97;;;18.60;1.00;;;;;;7392522;19;20078;-67
2023/07/24 04:37:41;;;;;;;10.38;6.97;;;18.50;1.00;;;;;;7392967;19;20014;-67
2023/07/24 04:40:12;;;;;;;11.40;7.38;;;18.50;1.00;;;;;;7391466;19;20039;-67
2023/07/24 04:42:44;;;;;;;11.85;7.43;;;19.00;1.00;;;;;;7391445;19;20392;-67
2023/07/24 04:45:14;;;;;;;10.95;6.88;;;20.00;1.00;;;;;;7392531;19;20038;-67
2023/07/24 04:47:44;;;;;;;12.73;8.07;;;19.50;1.00;;;;;;7393181;19;20041;-67
2023/07/24 04:50:14;;;;;;;10.52;6.78;;;19.40;1.00;;;;;;7391142;19;20022;-67
2023/07/24 04:52:44;;;;;;;13.25;7.50;;;19.10;1.00;;;;;;7392611;19;20458;-68
2023/07/24 04:55:14;;;;;;;12.63;7.47;;;18.90;1.00;;;;;;7391845;19;20027;-68
2023/07/24 04:57:46;;;;;;;13.20;6.70;;;18.90;1.00;;;;;;7392810;19;20020;-68
2023/07/24 05:00:17;;;;;;;10.90;7.22;;;18.80;1.00;;;;;;7391322;19;20014;-67
2023/07/24 05:02:47;;;;;;;13.00;7.82;;;18.60;1.00;;;;;;7391942;19;20018;-68
2023/07/24 05:05:17;;;;;;;12.52;7.38;;;18.50;1.00;;;;;;7391746;19;20018;-68
2023/07/24 05:07:47;;;;;;;10.77;7.05;;;18.60;1.00;;;;;;7392223;19;20014;-67
2023/07/24 05:10:17;;;;;;;13.73;7.65;;;18.60;1.00;;;;;;7391122;19;20022;-67
2023/07/24 05:12:50;;;;;;;14.43;7.50;;;18.70;1.00;;;;;;7392366;19;20010;-67
2023/07/24 05:15:20;;;;;;;14.95;7.40;;;18.70;1.00;;;;;;7391685;19;20010;-67
2023/07/24 05:17:50;;;;;;;13.80;7.93;;;18.60;1.00;;;;;;7391941;19;20006;-66
2023/07/24 05:20:20;;;;;;;12.15;7.22;;;18.70;1.00;;;;;;7390168;19;20514;-66
2023/07/24 05:22:50;;;;;;;12.63;7.45;;;18.70;1.00;;;;;;7391031;19;20081;-67
2023/07/24 05:25:20;;;;;;;10.82;7.10;;;18.80;1.00;;;;;;7391170;19;20035;-67
2023/07/24 05:27:52;;;;;;;12.50;7.07;;;18.90;1.00;;;;;;7391283;19;20507;-67
2023/07/24 05:30:22;;;;;;;10.90;7.80;;;19.10;1.00;;;;;;7390653;19;20014;-67
2023/07/24 05:32:52;;;;;;;11.55;7.75;;;19.10;1.00;;;;;;7390737;19;20022;-67
2023/07/24 05:35:22;;;;;;;13.32;7.95;;;19.00;1.00;;;;;;7390182;19;20089;-67
2023/07/24 05:37:52;;;;;;;12.40;6.93;;;19.10;1.00;;;;;;7390787;19;20027;-68
2023/07/24 05:40:22;;;;;;;12.45;6.85;;;19.30;1.00;;;;;;7389797;19;20031;-68
2023/07/24 05:42:54;;;;;;;11.05;7.07;;;19.30;1.00;;;;;;7390912;19;20022;-68
2023/07/24 05:45:24;;;;;;;13.32;6.70;;;19.20;1.00;;;;;;7390262;19;20018;-68
2023/07/24 05:47:54;;;;;;;12.25;7.22;;;19.00;1.00;;;;;;7390078;19;20101;-67
2023/07/24 05:50:24;;;;;;;13.65;7.50;;;19.20;1.00;;;;;;7387845;19;20025;-66
2023/07/24 05:52:54;;;;;;;11.43;7.90;;;19.20;1.00;;;;;;7389719;19;20079;-68
2023/07/24 05:55:24;;;;;;;12.18;7.85;;;19.00;1.00;;;;;;7388873;19;20014;-68
2023/07/24 05:57:56;;;;;;;14.18;7.95;;;19.10;1.00;;;;;;7389959;19;20035;-67
2023/07/24 06:00:26;;;;;;;12.48;7.75;;;19.10;1.00;;;;;;7388742;19;20022;-68
2023/07/24 06:02:57;;;;;;;13.77;7.30;;;19.20;1.00;;;;;;7390268;19;20018;-68
2023/07/24 06:05:27;;;;;;;11.13;7.95;;;19.30;1.00;;;;;;7390071;19;20082;-67
2023/07/24 06:07:57;;;;;;;14.45;8.15;;;19.20;1.00;;;;;;7388394;19;20010;-68
2023/07/24 06:10:27;;;;;;;12.85;7.90;;;19.50;1.00;;;;;;7395184;19;20014;-68
2023/07/24 06:12:59;;;;;;;13.32;7.88;;;19.50;1.00;;;;;;7397503;19;20031;-66
2023/07/24 06:15:29;;;;;;;13.93;7.82;;;19.50;1.00;;;;;;7396662;19;20018;-67
2023/07/24 06:17:59;;;;;;;14.50;8.02;;;19.50;1.00;;;;;;7396315;19;20014;-68
2023/07/24 06:20:29;;;;;;;15.68;8.32;;;19.50;1.00;;;;;;7395012;19;20785;-68
2023/07/24 06:22:59;;;;;;;17.52;8.43;;;19.60;1.00;;;;;;7396891;19;20010;-68
2023/07/24 06:25:29;;;;;;;12.38;7.85;;;19.80;1.00;;;;;;7396206;19;20025;-67
2023/07/24 06:28:02;;;;;;;14.88;8.40;;;19.80;1.00;;;;;;7396636;19;20019;-67
2023/07/24 06:30:31;;;;;;;13.38;7.22;;;19.80;1.00;;;;;;7395253;19;20011;-68
2023/07/24 06:33:01;;;;;;;14.32;8.18;;;19.90;1.00;;;;;;7396461;19;20035;-67
2023/07/24 06:35:32;;;;;;;12.68;8.20;;;20.00;1.00;;;;;;7396420;19;20010;-67
2023/07/24 06:38:02;;;;;;;14.07;8.85;;;20.10;1.00;;;;;;7396317;19;20019;-69
2023/07/24 06:40:32;;;;;;;13.63;7.80;;;20.10;1.00;;;;;;7394262;19;20094;-67
2023/07/24 06:43:04;;;;;;;13.27;7.57;;;20.10;1.00;;;;;;7396495;19;20017;-66
2023/07/24 06:45:34;;;;;;;13.02;7.97;;;20.30;1.00;;;;;;7395872;19;20031;-67
2023/07/24 06:48:04;;;;;;;11.95;7.93;;;20.20;1.00;;;;;;7396812;19;20037;-67
2023/07/24 06:50:34;;;;;;;13.52;7.88;;;20.20;1.00;;;;;;7394088;19;20019;-68
2023/07/24 06:53:04;;;;;;;11.30;7.70;;;20.30;1.00;;;;;;7394841;19;20011;-67
2023/07/24 06:55:34;;;;;;;12.35;7.65;;;20.40;1.00;;;;;;7394871;19;20031;-69
2023/07/24 06:58:07;;;;;;;13.95;7.75;;;20.50;1.00;;;;;;7395878;19;20034;-68
2023/07/24 07:00:37;;;;;;;12.93;7.65;;;20.60;1.00;;;;;;7391944;19;20039;-68
2023/07/24 07:03:06;;;;;;;14.32;7.75;;;20.80;1.00;;;;;;7394687;19;20031;-67
2023/07/24 07:05:37;;;;;;;11.85;7.53;;;20.90;1.00;;;;;;7394847;19;20022;-67
2023/07/24 07:08:06;;;;;;;11.05;7.38;;;20.90;1.00;;;;;;7395093;19;20076;-67
2023/07/24 07:10:36;;;;;;;12.60;7.28;;;21.00;1.00;;;;;;7393919;19;20014;-68
2023/07/24 07:13:06;;;;;;;14.57;8.02;;;20.90;1.00;;;;;;7394807;19;20023;-67
2023/07/24 07:15:38;;;;;;;14.45;7.90;;;21.00;1.00;;;;;;7394648;19;20076;-68
2023/07/24 07:18:08;;;;;;;14.07;7.53;;;21.10;1.00;;;;;;7395860;19;20449;-67
2023/07/24 07:20:38;;;;;;;12.30;7.37;;;21.10;1.00;;;;;;7391091;19;20519;-67
2023/07/24 07:23:08;;;;;;;12.05;7.70;;;21.00;1.00;;;;;;7395159;19;20246;-68
2023/07/24 07:25:38;;;;;;;12.45;8.05;;;20.90;1.00;;;;;;7394657;19;20018;-68
2023/07/24 07:28:10;;;;;;;12.23;7.18;;;20.90;1.00;;;;;;7394687;19;20022;-67
2023/07/24 07:30:40;;;;;;;20.90;12.25;;;21.00;1.00;;;;;;7392882;19;20021;-68
2023/07/24 07:33:13;;;;;;;15.63;7.57;;;21.00;1.00;;;;;;7394677;19;20038;-68
2023/07/24 07:35:43;;;;;;;11.32;7.60;;;20.90;1.00;;;;;;7394657;19;20395;-67
2023/07/24 07:38:13;;;;;;;14.38;8.32;;;20.90;1.00;;;;;;7393622;19;20077;-67
2023/07/24 07:40:43;;;;;;;12.85;7.97;;;21.10;1.00;;;;;;7392783;19;20018;-67
2023/07/24 07:43:15;;;;;;;13.90;7.75;;;21.20;1.00;;;;;;7391247;19;20563;-67
2023/07/24 07:45:45;;;;;;;13.85;8.15;;;21.20;1.00;;;;;;7393880;19;20015;-67
2023/07/24 07:48:15;;;;;;;12.00;8.07;;;21.20;1.00;;;;;;7394341;19;20018;-67
2023/07/24 07:50:45;;;;;;;13.43;7.88;;;21.20;1.00;;;;;;7392262;19;20014;-68
2023/07/24 07:53:15;;;;;;;11.70;7.43;;;21.10;1.00;;;;;;7392417;19;20084;-66
2023/07/24 07:55:45;;;;;;;10.75;7.13;;;21.10;1.00;;;;;;7393295;19;20482;-68
2023/07/24 07:58:18;;;;;;;14.27;7.90;;;21.00;1.00;;;;;;7393529;19;20113;-67
2023/07/24 08:00:47;;;;;;;16.63;7.82;;;21.00;1.00;;;;;;7392815;19;20014;-67
2023/07/24 08:03:17;;;;;;;12.80;7.13;;;21.00;1.00;;;;;;7391864;19;20078;-66
2023/07/24 08:05:48;;;;;;;13.57;7.95;;;21.10;1.00;;;;;;7393800;19;20174;-68
2023/07/24 08:08:17;;;;;;;18.08;7.25;;;21.10;1.00;;;;;;7393538;19;20018;-69
2023/07/24 08:10:47;;;;;;;12.30;7.85;;;21.00;1.00;;;;;;7391946;19;20434;-67
2023/07/24 08:13:20;;;;;;;13.23;7.95;;;21.00;1.00;;;;;;7393309;19;20010;-67
2023/07/24 08:15:51;;;;;;;12.50;7.57;;;20.90;1.00;;;;;;7392521;19;20006;-68
2023/07/24 08:18:21;;;;;;;13.50;7.43;;;20.90;1.00;;;;;;7393089;19;20014;-67
2023/07/24 08:20:51;;;;;;;15.38;9.23;;;20.80;1.00;;;;;;7391571;19;20018;-67
2023/07/24 08:23:21;;;;;;;13.25;7.78;;;20.70;1.00;;;;;;7391061;19;20482;-67
2023/07/24 08:25:55;;;;;;;11.05;7.18;;;20.70;1.00;;;;;;7393014;19;20015;-68
2023/07/24 08:28:28;;;;;;;10.88;8.18;;;20.50;1.00;;;;;;7392451;19;20741;-68
2023/07/24 08:31:01;;;;;;;16.30;8.13;;;20.50;1.00;;;;;;7390105;19;20042;-67
2023/07/24 08:33:35;;;;;;;13.48;8.07;;;20.40;1.00;;;;;;7392452;19;20029;-67
2023/07/24 08:36:07;;;;;;;15.45;7.95;;;20.40;1.00;;;;;;7392365;19;20038;-67
2023/07/24 08:38:38;;;;;;;12.00;6.95;;;20.30;1.00;;;;;;7392861;19;20011;-67
2023/07/24 08:41:10;;;;;;;12.70;7.93;;;20.20;1.00;;;;;;7391189;19;20014;-67
2023/07/24 08:43:45;;;;;;;12.40;7.32;;;20.10;1.00;;;;;;7390861;19;20023;-67
2023/07/24 08:46:17;;;;;;;12.23;8.23;;;20.00;1.00;;;;;;7391995;19;20077;-67
2023/07/24 08:48:46;;;;;;;10.48;7.28;;;20.10;1.00;;;;;;7390240;19;20344;-67
2023/07/24 08:51:21;;;;;;;13.00;8.35;;;20.10;1.00;;;;;;7390527;19;20537;-67
2023/07/24 08:53:52;;;;;;;13.40;8.25;;;20.20;1.00;;;;;;7391459;19;20074;-67
2023/07/24 08:56:22;;;;;;;10.55;7.68;;;20.10;1.00;;;;;;7390228;19;20049;-68
2023/07/24 08:58:54;;;;;;;13.02;8.15;;;20.10;1.00;;;;;;7388231;19;20094;-67
2023/07/24 09:01:24;;;;;;;12.50;7.93;;;20.00;1.00;;;;;;7386707;19;20027;-67
2023/07/24 09:03:54;;;;;;;12.25;8.07;;;20.10;1.00;;;;;;7386812;19;20014;-67
2023/07/24 09:06:25;;;;;;;11.45;8.00;;;20.20;1.00;;;;;;7390199;19;20037;-67
2023/07/24 09:08:56;;;;;;;12.63;8.27;;;20.30;1.00;;;;;;7390288;19;20058;-67
2023/07/24 09:11:26;;;;;;;12.35;7.95;;;20.40;1.00;;;;;;7387187;19;20022;-67
2023/07/24 09:13:59;;;;;;;12.07;7.90;;;20.70;1.00;;;;;;7390482;19;20057;-67
2023/07/24 09:16:29;;;;;;;12.20;8.20;;;20.90;1.00;;;;;;7389721;19;20038;-68
2023/07/24 09:19:00;;;;;;;11.32;7.57;;;21.20;1.00;;;;;;7388290;19;20091;-68
2023/07/24 09:21:42;;;;;;;12.57;7.95;;;21.20;1.00;;;;;;7385380;19;20011;-68
2023/07/24 09:24:14;;;;;;;11.35;7.85;;;21.30;1.00;;;;;;7386949;19;20035;-68
2023/07/24 09:26:51;;;;;;;12.35;8.02;;;21.70;1.00;;;;;;7387600;19;20509;-67
2023/07/24 09:29:36;;;;;;;10.95;7.75;;;22.20;1.00;;;;;;7387578;19;20038;-67
2023/07/24 09:32:07;;;;;;;12.10;7.57;;;22.50;1.00;;;;;;7389727;19;20513;-68
2023/07/24 09:34:44;;;;;;;13.73;7.45;;;22.40;1.00;;;;;;7388837;19;20506;-68
2023/07/24 09:37:24;;;;;;;11.90;7.45;;;22.60;1.00;;;;;;7389364;19;20486;-67
2023/07/24 09:39:54;;;;;;;11.30;7.45;;;22.70;1.00;;;;;;7388559;19;20018;-67
2023/07/24 09:42:32;;;;;;;11.80;6.90;;;22.70;1.00;;;;;;7388386;19;20039;-67
2023/07/24 09:45:08;;;;;;;13.68;7.97;;;22.90;1.00;;;;;;7392854;19;20024;-68
2023/07/24 09:47:38;;;;;;;11.93;7.43;;;22.80;1.00;;;;;;7396152;19;20039;-68
2023/07/24 09:50:12;;;;;;;10.23;7.50;;;22.80;1.00;;;;;;7393984;19;20502;-68
2023/07/24 09:52:44;;;;;;;10.32;7.00;;;22.60;1.00;;;;;;7394753;19;20022;-67
2023/07/24 09:55:18;;;;;;;12.23;6.67;;;22.20;1.00;;;;;;7242311;19;2993559;-67
2023/07/24 09:57:48;;;;;;;12.77;7.03;;;22.40;1.00;;;;;;7397535;19;20263;-68
2023/07/24 10:00:21;;;;;;;11.85;6.93;;;22.40;1.00;;;;;;7396273;19;20542;-67
2023/07/24 10:02:51;;;;;;;10.15;6.13;;;22.30;1.00;;;;;;7397212;19;20018;-67
2023/07/24 10:05:21;;;;;;;10.30;6.78;;;22.30;1.00;;;;;;7397865;19;20026;-67
2023/07/24 10:07:52;;;;;;;12.38;8.02;;;22.00;1.00;;;;;;7397787;19;20023;-67
2023/07/24 10:10:24;;;;;;;10.90;6.15;;;21.80;1.00;;;;;;7396472;19;20019;-67
2023/07/24 10:12:54;;;;;;;11.60;6.25;;;21.70;1.00;;;;;;7397503;19;20015;-67
2023/07/24 10:15:27;;;;;;;9.30;5.97;;;21.60;1.00;;;;;;7397115;19;20534;-67
2023/07/24 10:18:04;;;;;;;8.52;6.07;;;21.70;1.00;;;;;;7397342;19;20019;-68
2023/07/24 10:20:38;;;;;;;8.18;6.00;;;21.60;1.00;;;;;;7395795;19;20022;-68
2023/07/24 10:23:10;;;;;;;9.32;6.15;;;21.50;1.00;;;;;;7396059;19;20030;-67
2023/07/24 10:25:43;;;;;;;10.45;6.80;;;21.40;1.00;;;;;;7396540;19;20018;-67
2023/07/24 10:28:17;;;;;;;12.53;6.30;;;21.50;1.00;;;;;;7395209;19;20037;-67
2023/07/24 10:30:58;;;;;;;10.23;6.80;;;21.40;1.00;;;;;;7393361;19;20260;-68
2023/07/24 10:33:32;;;;;;;10.05;6.72;;;21.30;1.00;;;;;;7395926;19;20023;-68
2023/07/24 10:36:09;;;;;;;;;;;21.20;1.00;;;;;;7397899;19;20027;-68
2023/07/24 10:38:40;;;;;;;13.82;9.65;;;21.10;1.00;;;;;;7396826;19;19919;-68
2023/07/24 10:41:12;;;;;;;10.50;6.18;;;21.10;1.00;;;;;;7394668;19;20010;-68
2023/07/24 10:43:46;;;;;;;8.07;5.90;;;20.90;1.00;;;;;;7394969;19;20022;-68
2023/07/24 10:46:22;;;;;;;8.82;5.82;;;21.00;1.00;;;;;;7394929;19;20015;-69
2023/07/24 10:48:54;;;;;;;9.68;6.03;;;21.00;1.00;;;;;;7395798;19;20034;-67
2023/07/24 10:51:24;;;;;;;9.57;6.38;;;20.90;1.00;;;;;;7394376;19;20018;-68
2023/07/24 10:53:54;;;;;;;10.98;8.13;;;20.80;1.00;;;;;;7395610;19;20018;-68
2023/07/24 10:56:24;;;;;;;15.15;11.23;;;20.70;1.00;;;;;;7395786;19;20102;-67
2023/07/24 10:58:54;;;;;;;9.93;6.63;;;20.60;1.00;;;;;;7395779;19;20018;-69
2023/07/24 11:01:26;;;;;;;12.23;7.07;;;20.50;1.00;;;;;;7393532;19;20035;-68
2023/07/24 11:03:57;;;;;;;10.00;6.95;;;20.30;1.00;;;;;;7392282;19;20042;-67
2023/07/24 11:06:27;;;;;;;9.43;6.32;;;20.30;1.00;;;;;;7396039;19;20042;-67
2023/07/24 11:08:59;;;;;;;9.13;6.18;;;20.10;1.00;;;;;;7395076;19;20021;-66
2023/07/24 11:11:32;;;;;;;11.98;7.15;;;20.00;1.00;;;;;;7393427;19;20022;-68
2023/07/24 11:14:04;;;;;;;11.73;6.78;;;20.00;2.50;;;;;;7395646;19;20478;-69
2023/07/24 11:16:36;;;;;;;11.30;6.35;;;19.90;1.10;;;;;;7395611;19;20058;-67
2023/07/24 11:19:07;;;;;;;16.67;7.55;;;19.90;7.50;;;;;;7394648;19;20015;-68
2023/07/24 11:21:39;;;;;;;11.85;7.63;;;19.90;10.20;;;;;;7392619;19;20015;-68
2023/07/24 11:24:10;;;;;;;16.02;8.77;;;19.80;10.60;;;;;;7393966;19;20014;-68
2023/07/24 11:26:40;;;;;;;19.00;8.63;;;19.70;14.10;;;;;;7395130;19;20374;-68
2023/07/24 11:29:14;;;;;;;9.55;7.68;;;19.70;15.40;;;;;;7394519;19;20019;-69
2023/07/24 11:31:47;;;;;;;13.52;7.13;;;19.70;14.60;;;;;;7392665;19;20374;-68
2023/07/24 11:34:17;;;;;;;9.55;6.65;;;19.70;14.40;;;;;;7394168;19;20023;-68
2023/07/24 11:36:47;;;;;;;10.27;6.13;;;19.70;12.90;;;;;;7395246;19;20015;-67
2023/07/24 11:39:24;;;;;;;10.57;7.25;;;19.70;9.30;;;;;;7392245;19;20498;-68
2023/07/24 11:41:54;;;;;;;11.02;6.95;;;19.80;11.20;;;;;;7394712;19;20028;-68
2023/07/24 11:44:27;;;;;;;11.57;7.30;;;19.90;5.90;;;;;;7393119;19;20007;-67
2023/07/24 11:47:07;;;;;;;16.35;8.07;;;20.00;9.00;;;;;;7393902;19;20021;-67
2023/07/24 11:49:37;;;;;;;8.35;6.50;;;20.20;8.40;;;;;;7393936;19;20011;-68
2023/07/24 11:52:09;;;;;;;11.38;7.00;;;20.40;3.40;;;;;;7394172;19;20014;-67
2023/07/24 11:54:39;;;;;;;11.60;6.80;;;20.80;1.30;;;;;;7393673;19;20011;-67
2023/07/24 11:57:17;;;;;;;11.60;6.97;;;21.00;1.00;;;;;;7393434;19;20489;-68
2023/07/24 11:59:47;;;;;;;11.60;7.07;;;21.10;1.00;;;;;;7392633;19;20022;-68
2023/07/24 12:02:21;;;;;;;9.55;6.68;;;21.10;1.00;;;;;;7393679;19;20014;-67
2023/07/24 12:04:58;;;;;;;10.70;6.40;;;21.10;1.00;;;;;;7392144;19;20050;-67
2023/07/24 12:07:34;;;;;;;10.20;6.15;;;21.00;1.00;;;;;;7391968;19;20018;-67
2023/07/24 12:10:04;;;;;;;7.65;5.22;;;20.90;1.00;;;;;;7392603;19;20018;-68
2023/07/24 12:12:42;;;;;;;7.40;5.32;;;20.70;1.00;;;;;;7394002;19;20014;-68
2023/07/24 12:15:13;;;;;;;8.55;5.38;;;20.80;1.00;;;;;;7392753;19;20019;-67
2023/07/24 12:17:46;;;;;;;8.38;5.60;;;20.60;1.00;;;;;;7393590;19;20014;-68
2023/07/24 12:20:16;;;;;;;13.68;5.65;;;20.50;1.00;;;;;;7392289;19;20490;-68
2023/07/24 12:22:47;;;;;;;8.52;5.18;;;20.30;1.00;;;;;;7392364;19;20023;-67
2023/07/24 12:25:17;;;;;;;8.32;5.28;;;20.30;1.00;;;;;;7391589;19;20035;-67
2023/07/24 12:27:47;;;;;;;9.45;5.65;;;20.30;1.00;;;;;;7393473;19;20443;-68
2023/07/24 12:30:17;;;;;;;9.90;5.80;;;20.30;1.00;;;;;;7391823;19;20041;-68
2023/07/24 12:32:50;;;;;;;9.75;5.72;;;20.30;1.00;;;;;;7393056;19;20018;-68
2023/07/24 12:35:20;;;;;;;9.73;5.63;;;20.20;1.00;;;;;;7392461;19;20046;-70
2023/07/24 12:37:50;;;;;;;8.90;5.65;;;20.20;1.00;;;;;;7392567;19;20006;-69
2023/07/24 12:40:20;;;;;;;9.93;6.30;;;20.20;1.00;;;;;;7391902;19;20081;-67
2023/07/24 12:42:49;;;;;;;10.32;6.95;;;20.10;1.00;;;;;;7392786;19;20087;-68
2023/07/24 12:45:19;;;;;;;9.13;5.72;;;19.90;1.00;;;;;;7390696;19;20082;-68
2023/07/24 12:47:52;;;;;;;11.63;6.57;;;19.90;1.00;;;;;;7392296;19;20037;-68
2023/07/24 12:50:23;;;;;;;8.75;5.72;;;20.00;1.00;;;;;;7389452;19;20031;-68
2023/07/24 12:52:53;;;;;;;8.50;5.40;;;20.00;1.00;;;;;;7391849;19;20025;-68
2023/07/24 12:55:23;;;;;;;9.88;5.80;;;20.10;1.00;;;;;;7390139;19;20017;-68
2023/07/24 12:57:53;;;;;;;10.77;6.45;;;19.90;1.00;;;;;;7391372;19;20062;-69
2023/07/24 13:00:23;;;;;;;7.90;5.72;;;19.90;1.00;;;;;;7390410;19;20475;-69
2023/07/24 13:02:56;;;;;;;7.80;6.25;;;19.90;1.00;;;;;;7391759;19;20018;-68
2023/07/24 13:05:26;;;;;;;8.35;5.93;;;20.10;1.00;;;;;;7390295;19;20172;-68
2023/07/24 13:07:56;;;;;;;33.33;26.17;;;20.10;1.00;;;;;;7391921;19;20027;-68